Terminal Aerodrome Forecast
Issued by NWS

Current Version | Previous Version | Text Only | Print | Product List | Glossary On
Versions: 1 2 3 4 5 6 7 8 9 10 11 12 13 14 15 16 17 18 19 20
000
FTUS44 KBMX 121700
TAFTOI
TAF
KTOI 121728Z 1218/1318 12006KT P6SM SCT050
     FM130100 00000KT P6SM SKC
     FM131000 00000KT 4SM BR SKC
      TEMPO 1311/1313 1SM BR
     FM131400 17003KT P6SM FEW030=

USA.gov is the U.S. government's official web portal to all federal, state and local government web resources and services.